Rushville, OH

7:14 AM EDT on September 01, 2015 (GMT -0400)
Northern Lancaster Area | | Change Station
CLOSE
Current Station
Personal Weather Station
Location: Lancaster, OH
Elevation: 1000 ft
Nearby Weather Stations

Elev 1000 ft 39.76 °N, 82.57 °W | Updated 21 seconds ago

Fog
Fog
64.9 °F
Feels Like 64.9 °F
N
1.0
Wind Variable Wind from West
Gusts 0.0 mph

Today
High -- | Low -- °F
--% Chance of Precip.
Yesterday
High -- | Low -- °F
Precip. -- in
6:57 AM 8:01 PM
Waning Gibbous, 89% visible
Pressure 30.12 in
Visibility 0.2 miles
Clouds
Dew Point 65 °F
Humidity 99%
Rainfall 0.00 in
Snow Depth Not available.
UV Not available.
Pollen 9.90 out of 12
Air Quality Not available.
Flu Activity Not available.
METAR KLHQ 011053Z AUTO 00000KT 1/4SM FG VV004 17/16 A3013 RMK AO2 SLP197 T01670161
Pressure 30.12 in
Visibility 0.2 miles
Clouds
Dew Point 65 °F
Humidity 99%
Rainfall 0.00 in
Snow Depth Not available.
UV Not available.
Pollen 9.90 out of 12
Air Quality Not available.
Flu Activity Not available.
METAR KLHQ 011053Z AUTO 00000KT 1/4SM FG VV004 17/16 A3013 RMK AO2 SLP197 T01670161

10-Day Weather Forecast

×

Almanac

Astronomy

Sep. 01, 2015 Rise Set
Actual Time
Civil Twilight
Nautical Twilight
Astronomical Twilight
Moon
Length of Visible Light
Length of Day
Tomorrow will be .
, % of the Moon is Illuminated

Today's Extremes

State Highs State Lows

Community

WunderPhotos

Upload Photos

1,851,501 photos uploaded!

WunderBlogs® & News

Nearby

Air Quality

  Air Quality AQ Index Pollutant
Not available.

Snow Depth

Station Depth Elevation

Earthquake Activity

City Distance Mag. Time & Date
Minimum magnitude displayed is 2.5.

Coastal Water Temperatures

Place Temperature

Stations

Nearby Weather Stations

Station Location Temp. Windchill Dew Point Humidity Wind Precip. Elev Updated Type